Airfield :
LOGIN :

Register | Disclaimer

   EN    FR    IT 

 










Legend :    VFR   Marginal VFR   IFR   Intensive IFR   Very Intensive IFR
Visi :
Ceiling :
>= 8 km
>= 3000ft
5 to 8 km
1000 to 3000 ft
1500m to 5 km
500 to 1000 ft
800 to 1500m
200 to 500 ft
< 800m
< 200 ft
Symbols :   Thunderstorms  Fog  Heavy snow  Heavy precipitations  Wind > 20 kt
SIGMETs :     Misc.  Thunderstorms  Icing  Turbulence  Mountain Waves  Volcanic Ashes







- Airport Elevation : 348 ft
- IATA code : STN
- Download approach charts


EGSS - London Stansted

CURRENT METAR :
  • 250150Z AUTO 19003KT 9999 NCD 11/10 Q1026

EXPIRED METARs :
  • 250120Z AUTO 19003KT 9999 NCD 12/10 Q1026
  • 250050Z AUTO 18004KT 9999 NCD 12/10 Q1026
  • 250020Z AUTO VRB03KT 9999 NCD 12/09 Q1026
  • 242350Z AUTO 14005KT 9999 NCD 14/10 Q1026
  • 242320Z AUTO 15005KT 9999 NCD 14/10 Q1026

TAF TAF EGSS
Valid from the 25 at 00:00 until the 26 at 06:00 UTC


242254Z 2500/2606 16004KT CAVOK
PROB30 2502/2506 8000
BECMG 2600/2603 7000
PROB30 2603/2606 3000 BR BKN003
ATIS : +44 1279 669 325
No reported NOTAMs for that airfield.



MET'MAP, your aeronautical weather chart ! - Copyright ORBIFLY December 2007 - Disclaimer

ORBIFLY MET'MAP TEAM :

Programming & Development : Alexandra Zaïnal
Concept & Development : Baudouin d'Aumeries
Co-Development & Prog : Marc-Olivier Méhu
Technical & hardware support : Manuel Goepfert

Contact : metmap@orbifly.com




SOURCES & CREDITS :

   NOAA